Exy Johnson — WDB3395 — position and weather

sailwx.info

Track history (hours):
 
Tides and Currents Weather Stations Pressure Air Temp Water Temp Dewpoint Dewpoint Depression Visibility Wind Speed Wind Dir Waves Ship Positions

Exy Johnson (United States)

Ship's website: http://www.lamitopsail.org/index.asp

Owner: Los Angeles Maritime Institute, San Pedro, CA. More information available from US FCC via Universal Licensing System and Coast Guard Vessel Documentation Center.

Last reported at 2017-Jun-24 22:18 UTC. Time now 2017-Jun-25 12:25 UTC.
Position N 33°43' W 118°17'.

Length 34 m; draft 3.7 m.

Type: Sailing vessel. MMSI: 366883970.

Date/timePositionNaut miles runAvg speedWind from/ knotsBaromVisibWave heightAir tempDewpointWater temp
2017-Jun-24 22:18N 33°43' W 118°17'0 0.5
2017-Jun-24 21:50N 33°43' W 118°16'0 0.1
2017-Jun-24 21:28N 33°43' W 118°16'1 0.1
2017-Jun-24 13:49N 33°44' W 118°17'0 0.0
2017-Jun-24 12:39N 33°44' W 118°17'0 0.0
2017-Jun-24 12:23N 33°44' W 118°17'0 0.0
2017-Jun-24 12:00N 33°44' W 118°17'0 0.0
2017-Jun-24 11:30N 33°44' W 118°17'0 0.0
2017-Jun-24 10:58N 33°44' W 118°17'0 0.0
2017-Jun-24 10:20N 33°44' W 118°17'0 0.0
2017-Jun-24 09:57N 33°44' W 118°17'0 0.0
2017-Jun-24 09:25N 33°44' W 118°17'0 0.0
2017-Jun-24 08:59N 33°44' W 118°17'0 0.0
2017-Jun-24 08:05N 33°44' W 118°17'0 0.0
2017-Jun-24 07:58N 33°44' W 118°17'0 0.0
2017-Jun-24 07:15N 33°44' W 118°17'0 0.0
2017-Jun-24 06:56N 33°44' W 118°17'0 0.0
2017-Jun-24 06:24N 33°44' W 118°17'0 0.0
2017-Jun-24 05:58N 33°44' W 118°17'0 0.0
2017-Jun-24 05:28N 33°44' W 118°17'0 0.0
2017-Jun-24 05:00N 33°44' W 118°17'0 0.0
2017-Jun-24 01:24N 33°44' W 118°17'0 0.0
2017-Jun-23 23:25N 33°44' W 118°17'0 0.0
2017-Jun-23 22:46N 33°44' W 118°17'0 0.0
2017-Jun-23 22:28N 33°44' W 118°17'0 0.0
2017-Jun-23 19:22N 33°44' W 118°17'0 0.0
2017-Jun-23 17:00N 33°44' W 118°17'0 0.0
2017-Jun-23 16:28N 33°44' W 118°17'0 0.0
2017-Jun-23 15:41N 33°44' W 118°17'0 0.0
2017-Jun-23 15:29N 33°44' W 118°17'0 0.0
2017-Jun-23 15:00N 33°44' W 118°17'0 0.0
2017-Jun-23 14:00N 33°44' W 118°17'0 0.0
2017-Jun-23 13:24N 33°44' W 118°17'0 0.0
2017-Jun-23 13:00N 33°44' W 118°17'0 0.0
2017-Jun-23 12:30N 33°44' W 118°17'0 0.0
2017-Jun-23 12:00N 33°44' W 118°17'0 0.0
2017-Jun-23 11:30N 33°44' W 118°17'0 0.0
2017-Jun-23 10:50N 33°44' W 118°17'0 0.0
2017-Jun-23 10:30N 33°44' W 118°17'0 0.0
2017-Jun-23 09:51N 33°44' W 118°17'0 0.0
2017-Jun-23 08:53N 33°44' W 118°17'0 0.0
2017-Jun-23 08:26N 33°44' W 118°17'0 0.0
2017-Jun-23 07:17N 33°44' W 118°17'0 0.0
2017-Jun-23 06:45N 33°44' W 118°17'0 0.0
2017-Jun-23 06:26N 33°44' W 118°17'1 0.1
2017-Jun-23 02:34N 33°43' W 118°17'0 0.0
2017-Jun-23 02:04N 33°43' W 118°17'0 0.0
2017-Jun-23 01:47N 33°43' W 118°17'0 0.0
2017-Jun-23 00:23N 33°43' W 118°17'0 0.2
2017-Jun-22 22:40N 33°43' W 118°16'0 0.4
2017-Jun-22 22:14N 33°43' W 118°16'1 1.0
2017-Jun-22 21:25N 33°44' W 118°17'0 0.0
2017-Jun-22 20:49N 33°44' W 118°17'0 0.0
2017-Jun-22 20:17N 33°44' W 118°17'0 0.0
2017-Jun-22 19:48N 33°44' W 118°17'0 0.0
2017-Jun-22 19:30N 33°44' W 118°17'0 0.0
2017-Jun-22 19:00N 33°44' W 118°17'2 3.2
2017-Jun-22 18:20N 33°42' W 118°16'2 6.4
2017-Jun-22 18:00N 33°41' W 118°18'3 5.4
2017-Jun-22 17:30N 33°39' W 118°21'2 5.0
2017-Jun-22 17:00N 33°37' W 118°23'3 6.2
2017-Jun-22 16:27N 33°35' W 118°25'6 5.8
2017-Jun-22 15:25N 33°29' W 118°28'3 0.2
2017-Jun-22 01:13N 33°27' W 118°30'0 0.0
2017-Jun-22 00:55N 33°27' W 118°30'1 0.0
2017-Jun-21 02:41N 33°27' W 118°29'1 4.1
2017-Jun-21 02:30N 33°27' W 118°28'2 4.6
2017-Jun-21 02:00N 33°26' W 118°25'2 4.4
2017-Jun-21 01:29N 33°25' W 118°23'2 4.6
2017-Jun-21 01:00N 33°24' W 118°21'2 5.0
2017-Jun-21 00:30N 33°22' W 118°20'1 1.0
2017-Jun-20 23:54N 33°21' W 118°19'0 0.0
2017-Jun-20 23:30N 33°21' W 118°19'0 0.0
2017-Jun-20 23:00N 33°21' W 118°19'0 0.0
2017-Jun-20 22:18N 33°21' W 118°19'0 0.0
2017-Jun-20 22:00N 33°21' W 118°19'0 0.0
2017-Jun-20 21:30N 33°21' W 118°19'0 0.0
2017-Jun-20 20:54N 33°21' W 118°19'0 0.0
2017-Jun-20 20:29N 33°21' W 118°19'2 3.5
2017-Jun-20 20:00N 33°22' W 118°18'1 1.5
2017-Jun-20 19:27N 33°23' W 118°17'2 4.9
2017-Jun-20 18:56N 33°21' W 118°19'0 0.1
2017-Jun-20 18:29N 33°21' W 118°19'0 0.0
2017-Jun-20 17:58N 33°21' W 118°19'0 0.1
2017-Jun-20 17:29N 33°21' W 118°19'3 5.0
2017-Jun-20 17:00N 33°23' W 118°21'1 0.1
2017-Jun-20 10:47N 33°24' W 118°22'0 0.0
2017-Jun-20 10:29N 33°24' W 118°22'0 0.0
2017-Jun-20 03:53N 33°24' W 118°22'0 0.0
2017-Jun-20 03:29N 33°24' W 118°22'0 0.0
2017-Jun-20 01:14N 33°24' W 118°22'9 4.9
2017-Jun-19 23:19N 33°32' W 118°17'1 4.7
2017-Jun-19 23:00N 33°33' W 118°16'3 5.2
2017-Jun-19 22:30N 33°36' W 118°15'2 4.8
2017-Jun-19 22:00N 33°38' W 118°14'2 4.3
2017-Jun-19 21:30N 33°40' W 118°14'3 3.3
2017-Jun-19 20:30N 33°43' W 118°16'1 1.5
2017-Jun-19 20:00N 33°44' W 118°16'0 0.2
2017-Jun-19 18:15N 33°44' W 118°17'0 0.0
2017-Jun-19 17:09N 33°44' W 118°17'0 0.0
2017-Jun-19 13:59N 33°44' W 118°17'0 0.0
2017-Jun-19 06:00N 33°44' W 118°17'0 0.0
2017-Jun-19 04:02N 33°44' W 118°17'0 0.0
2017-Jun-19 03:56N 33°44' W 118°17'0 0.0
2017-Jun-19 00:35N 33°44' W 118°17'0 0.0
2017-Jun-19 00:15N 33°44' W 118°17'0 0.0
2017-Jun-18 23:58N 33°44' W 118°17'0 0.0
2017-Jun-18 23:22N 33°44' W 118°17'0 0.0
2017-Jun-18 22:55N 33°44' W 118°17'0 0.0
2017-Jun-18 22:27N 33°44' W 118°17'0 0.0
2017-Jun-18 22:00N 33°44' W 118°17'0 0.0
2017-Jun-18 21:29N 33°44' W 118°17'0 0.0
2017-Jun-18 18:49N 33°44' W 118°17'0 0.0
2017-Jun-18 13:59N 33°44' W 118°17'0 0.0
2017-Jun-18 13:00N 33°44' W 118°17'0 0.0
2017-Jun-18 12:06N 33°44' W 118°17'0 0.0
2017-Jun-18 11:13N 33°44' W 118°17'0 0.0
2017-Jun-18 11:00N 33°44' W 118°17'0 0.0
2017-Jun-18 10:24N 33°44' W 118°17'0 0.0
2017-Jun-18 09:54N 33°44' W 118°17'0 0.0
2017-Jun-18 09:30N 33°44' W 118°17'0 0.0
2017-Jun-18 08:29N 33°44' W 118°17'0 0.0
2017-Jun-18 07:53N 33°44' W 118°17'0 0.0
2017-Jun-18 07:30N 33°44' W 118°17'0 0.0
2017-Jun-18 07:00N 33°44' W 118°17'0 0.0
2017-Jun-18 06:31N 33°44' W 118°17'0 0.0
2017-Jun-18 06:00N 33°44' W 118°17'0 0.0
2017-Jun-18 05:29N 33°44' W 118°17'0 0.0
2017-Jun-18 04:56N 33°44' W 118°17'0 0.0
2017-Jun-18 04:26N 33°44' W 118°17'0 0.0
2017-Jun-18 03:59N 33°44' W 118°17'0 0.0
2017-Jun-18 03:30N 33°44' W 118°17'0 0.0
2017-Jun-18 02:37N 33°44' W 118°17'0 0.0
2017-Jun-18 02:29N 33°44' W 118°17'0 0.1
2017-Jun-18 02:00N 33°44' W 118°17'2 3.4
2017-Jun-18 01:30N 33°43' W 118°15'2 3.8
2017-Jun-18 00:57N 33°43' W 118°13'0 0.7
2017-Jun-18 00:30N 33°43' W 118°12'3 5.6
2017-Jun-18 00:00N 33°43' W 118°16'2 2.9
2017-Jun-17 23:28N 33°44' W 118°17'0 0.0
2017-Jun-17 22:58N 33°44' W 118°17'0 0.0
2017-Jun-17 22:29N 33°44' W 118°17'0 0.0
2017-Jun-17 21:59N 33°44' W 118°17'0 0.0
2017-Jun-17 21:27N 33°44' W 118°17'0 0.0
2017-Jun-17 18:53N 33°44' W 118°17'0 0.0
2017-Jun-17 18:29N 33°44' W 118°17'0 0.0
2017-Jun-17 17:58N 33°44' W 118°17'0 0.0
2017-Jun-17 17:29N 33°44' W 118°17'0 0.0
2017-Jun-17 16:56N 33°44' W 118°17'0 0.0
2017-Jun-17 16:25N 33°44' W 118°17'0 0.0
2017-Jun-17 13:15N 33°44' W 118°17'0 0.0
2017-Jun-17 12:47N 33°44' W 118°17'0 0.0
2017-Jun-17 12:25N 33°44' W 118°17'0 0.0
2017-Jun-17 10:26N 33°44' W 118°17'0 0.0
2017-Jun-17 09:43N 33°44' W 118°17'0 0.0
2017-Jun-17 09:29N 33°44' W 118°17'0 0.0
2017-Jun-17 07:47N 33°44' W 118°17'0 0.0
2017-Jun-17 07:11N 33°44' W 118°17'0 0.0
2017-Jun-17 06:58N 33°44' W 118°17'0 0.0
2017-Jun-17 06:30N 33°44' W 118°17'0 0.0
2017-Jun-16 23:05N 33°44' W 118°17'0 0.0
2017-Jun-16 22:38N 33°44' W 118°17'0 0.0
2017-Jun-16 22:21N 33°44' W 118°17'0 0.0
2017-Jun-16 21:51N 33°44' W 118°17'0 0.0
2017-Jun-16 21:27N 33°44' W 118°17'0 0.0
2017-Jun-16 20:55N 33°44' W 118°17'0 0.0
2017-Jun-16 20:30N 33°44' W 118°17'0 0.0
2017-Jun-16 20:00N 33°44' W 118°17'1 3.0
2017-Jun-16 19:30N 33°43' W 118°15'3 5.1
2017-Jun-16 19:00N 33°44' W 118°12'2 4.2
2017-Jun-16 18:30N 33°45' W 118°10'1 1.6
2017-Jun-16 17:58N 33°45' W 118°10'0 0.0
2017-Jun-16 17:26N 33°45' W 118°10'0 0.0
2017-Jun-16 10:57N 33°45' W 118°10'0 0.0
2017-Jun-16 10:27N 33°45' W 118°10'0 0.0
2017-Jun-16 09:06N 33°45' W 118°10'0 0.0
2017-Jun-16 08:41N 33°45' W 118°10'0 0.0
2017-Jun-16 08:29N 33°45' W 118°10'0 0.0
2017-Jun-16 07:55N 33°45' W 118°10'0 0.0
2017-Jun-16 07:30N 33°45' W 118°10'0 0.0
2017-Jun-16 06:59N 33°45' W 118°10'0 0.0
2017-Jun-16 06:28N 33°45' W 118°10'0 0.0
2017-Jun-16 05:59N 33°45' W 118°10'0 0.0
2017-Jun-16 05:26N 33°45' W 118°10'0 0.0
2017-Jun-16 04:56N 33°45' W 118°10'0 0.0
2017-Jun-16 02:53N 33°45' W 118°10'1 3.4
2017-Jun-16 02:28N 33°45' W 118°11'2 2.9
2017-Jun-16 01:44N 33°43' W 118°11'2 3.3
2017-Jun-16 01:14N 33°41' W 118°11'1 3.0
2017-Jun-16 01:00N 33°41' W 118°11'2 4.7
2017-Jun-16 00:30N 33°39' W 118°12'3 5.1
2017-Jun-16 00:00N 33°38' W 118°15'3 5.5
2017-Jun-15 23:30N 33°37' W 118°18'3 5.2
2017-Jun-15 22:58N 33°35' W 118°21'2 4.6
2017-Jun-15 22:28N 33°34' W 118°23'2 4.0
2017-Jun-15 21:59N 33°33' W 118°25'2 1.2
2017-Jun-15 20:34N 33°32' W 118°27'0 0.8
2017-Jun-15 20:30N 33°32' W 118°27'0 0.7
2017-Jun-15 20:00N 33°31' W 118°27'1 1.5
2017-Jun-15 19:30N 33°31' W 118°28'1 2.1
2017-Jun-15 19:00N 33°30' W 118°29'1 2.1
2017-Jun-15 18:30N 33°30' W 118°30'1 1.7
2017-Jun-15 17:51N 33°30' W 118°31'0 0.6
2017-Jun-15 17:21N 33°30' W 118°32'1 3.5
2017-Jun-15 16:57N 33°28' W 118°31'  
Track history (hours):
 
Tides and Currents Weather Stations Pressure Air Temp Water Temp Dewpoint Dewpoint Depression Visibility Wind Speed Wind Dir Waves Ship Positions

Exy Johnson (United States)

Ship's website: http://www.lamitopsail.org/index.asp

Owner: Los Angeles Maritime Institute, San Pedro, CA. More information available from US FCC via Universal Licensing System and Coast Guard Vessel Documentation Center.

Last reported at 2017-Jun-24 22:18 UTC. Time now 2017-Jun-25 12:25 UTC.
Position N 33°43' W 118°17'.

Length 34 m; draft 3.7 m.

Type: Sailing vessel. MMSI: 366883970.

Date/timePositionNaut miles runAvg speedWind from/ knotsBaromVisibWave heightAir tempDewpointWater temp
2017-Jun-24 22:18N 33°43' W 118°17'0 0.5
2017-Jun-24 21:50N 33°43' W 118°16'0 0.1
2017-Jun-24 21:28N 33°43' W 118°16'1 0.1
2017-Jun-24 13:49N 33°44' W 118°17'0 0.0
2017-Jun-24 12:39N 33°44' W 118°17'0 0.0
2017-Jun-24 12:23N 33°44' W 118°17'0 0.0
2017-Jun-24 12:00N 33°44' W 118°17'0 0.0
2017-Jun-24 11:30N 33°44' W 118°17'0 0.0
2017-Jun-24 10:58N 33°44' W 118°17'0 0.0
2017-Jun-24 10:20N 33°44' W 118°17'0 0.0
2017-Jun-24 09:57N 33°44' W 118°17'0 0.0
2017-Jun-24 09:25N 33°44' W 118°17'0 0.0
2017-Jun-24 08:59N 33°44' W 118°17'0 0.0
2017-Jun-24 08:05N 33°44' W 118°17'0 0.0
2017-Jun-24 07:58N 33°44' W 118°17'0 0.0
2017-Jun-24 07:15N 33°44' W 118°17'0 0.0
2017-Jun-24 06:56N 33°44' W 118°17'0 0.0
2017-Jun-24 06:24N 33°44' W 118°17'0 0.0
2017-Jun-24 05:58N 33°44' W 118°17'0 0.0
2017-Jun-24 05:28N 33°44' W 118°17'0 0.0
2017-Jun-24 05:00N 33°44' W 118°17'0 0.0
2017-Jun-24 01:24N 33°44' W 118°17'0 0.0
2017-Jun-23 23:25N 33°44' W 118°17'0 0.0
2017-Jun-23 22:46N 33°44' W 118°17'0 0.0
2017-Jun-23 22:28N 33°44' W 118°17'0 0.0
2017-Jun-23 19:22N 33°44' W 118°17'0 0.0
2017-Jun-23 17:00N 33°44' W 118°17'0 0.0
2017-Jun-23 16:28N 33°44' W 118°17'0 0.0
2017-Jun-23 15:41N 33°44' W 118°17'0 0.0
2017-Jun-23 15:29N 33°44' W 118°17'0 0.0
2017-Jun-23 15:00N 33°44' W 118°17'0 0.0
2017-Jun-23 14:00N 33°44' W 118°17'0 0.0
2017-Jun-23 13:24N 33°44' W 118°17'0 0.0
2017-Jun-23 13:00N 33°44' W 118°17'0 0.0
2017-Jun-23 12:30N 33°44' W 118°17'0 0.0
2017-Jun-23 12:00N 33°44' W 118°17'0 0.0
2017-Jun-23 11:30N 33°44' W 118°17'0 0.0
2017-Jun-23 10:50N 33°44' W 118°17'0 0.0
2017-Jun-23 10:30N 33°44' W 118°17'0 0.0
2017-Jun-23 09:51N 33°44' W 118°17'0 0.0
2017-Jun-23 08:53N 33°44' W 118°17'0 0.0
2017-Jun-23 08:26N 33°44' W 118°17'0 0.0
2017-Jun-23 07:17N 33°44' W 118°17'0 0.0
2017-Jun-23 06:45N 33°44' W 118°17'0 0.0
2017-Jun-23 06:26N 33°44' W 118°17'1 0.1
2017-Jun-23 02:34N 33°43' W 118°17'0 0.0
2017-Jun-23 02:04N 33°43' W 118°17'0 0.0
2017-Jun-23 01:47N 33°43' W 118°17'0 0.0
2017-Jun-23 00:23N 33°43' W 118°17'0 0.2
2017-Jun-22 22:40N 33°43' W 118°16'0 0.4
2017-Jun-22 22:14N 33°43' W 118°16'1 1.0
2017-Jun-22 21:25N 33°44' W 118°17'0 0.0
2017-Jun-22 20:49N 33°44' W 118°17'0 0.0
2017-Jun-22 20:17N 33°44' W 118°17'0 0.0
2017-Jun-22 19:48N 33°44' W 118°17'0 0.0
2017-Jun-22 19:30N 33°44' W 118°17'0 0.0
2017-Jun-22 19:00N 33°44' W 118°17'2 3.2
2017-Jun-22 18:20N 33°42' W 118°16'2 6.4
2017-Jun-22 18:00N 33°41' W 118°18'3 5.4
2017-Jun-22 17:30N 33°39' W 118°21'2 5.0
2017-Jun-22 17:00N 33°37' W 118°23'3 6.2
2017-Jun-22 16:27N 33°35' W 118°25'6 5.8
2017-Jun-22 15:25N 33°29' W 118°28'3 0.2
2017-Jun-22 01:13N 33°27' W 118°30'0 0.0
2017-Jun-22 00:55N 33°27' W 118°30'1 0.0
2017-Jun-21 02:41N 33°27' W 118°29'1 4.1
2017-Jun-21 02:30N 33°27' W 118°28'2 4.6
2017-Jun-21 02:00N 33°26' W 118°25'2 4.4
2017-Jun-21 01:29N 33°25' W 118°23'2 4.6
2017-Jun-21 01:00N 33°24' W 118°21'2 5.0
2017-Jun-21 00:30N 33°22' W 118°20'1 1.0
2017-Jun-20 23:54N 33°21' W 118°19'0 0.0
2017-Jun-20 23:30N 33°21' W 118°19'0 0.0
2017-Jun-20 23:00N 33°21' W 118°19'0 0.0
2017-Jun-20 22:18N 33°21' W 118°19'0 0.0
2017-Jun-20 22:00N 33°21' W 118°19'0 0.0
2017-Jun-20 21:30N 33°21' W 118°19'0 0.0
2017-Jun-20 20:54N 33°21' W 118°19'0 0.0
2017-Jun-20 20:29N 33°21' W 118°19'2 3.5
2017-Jun-20 20:00N 33°22' W 118°18'1 1.5
2017-Jun-20 19:27N 33°23' W 118°17'2 4.9
2017-Jun-20 18:56N 33°21' W 118°19'0 0.1
2017-Jun-20 18:29N 33°21' W 118°19'0 0.0
2017-Jun-20 17:58N 33°21' W 118°19'0 0.1
2017-Jun-20 17:29N 33°21' W 118°19'3 5.0
2017-Jun-20 17:00N 33°23' W 118°21'1 0.1
2017-Jun-20 10:47N 33°24' W 118°22'0 0.0
2017-Jun-20 10:29N 33°24' W 118°22'0 0.0
2017-Jun-20 03:53N 33°24' W 118°22'0 0.0
2017-Jun-20 03:29N 33°24' W 118°22'0 0.0
2017-Jun-20 01:14N 33°24' W 118°22'9 4.9
2017-Jun-19 23:19N 33°32' W 118°17'1 4.7
2017-Jun-19 23:00N 33°33' W 118°16'3 5.2
2017-Jun-19 22:30N 33°36' W 118°15'2 4.8
2017-Jun-19 22:00N 33°38' W 118°14'2 4.3
2017-Jun-19 21:30N 33°40' W 118°14'3 3.3
2017-Jun-19 20:30N 33°43' W 118°16'1 1.5
2017-Jun-19 20:00N 33°44' W 118°16'0 0.2
2017-Jun-19 18:15N 33°44' W 118°17'0 0.0
2017-Jun-19 17:09N 33°44' W 118°17'0 0.0
2017-Jun-19 13:59N 33°44' W 118°17'0 0.0
2017-Jun-19 06:00N 33°44' W 118°17'0 0.0
2017-Jun-19 04:02N 33°44' W 118°17'0 0.0
2017-Jun-19 03:56N 33°44' W 118°17'0 0.0
2017-Jun-19 00:35N 33°44' W 118°17'0 0.0
2017-Jun-19 00:15N 33°44' W 118°17'0 0.0
2017-Jun-18 23:58N 33°44' W 118°17'0 0.0
2017-Jun-18 23:22N 33°44' W 118°17'0 0.0
2017-Jun-18 22:55N 33°44' W 118°17'0 0.0
2017-Jun-18 22:27N 33°44' W 118°17'0 0.0
2017-Jun-18 22:00N 33°44' W 118°17'0 0.0
2017-Jun-18 21:29N 33°44' W 118°17'0 0.0
2017-Jun-18 18:49N 33°44' W 118°17'0 0.0
2017-Jun-18 13:59N 33°44' W 118°17'0 0.0
2017-Jun-18 13:00N 33°44' W 118°17'0 0.0
2017-Jun-18 12:06N 33°44' W 118°17'0 0.0
2017-Jun-18 11:13N 33°44' W 118°17'0 0.0
2017-Jun-18 11:00N 33°44' W 118°17'0 0.0
2017-Jun-18 10:24N 33°44' W 118°17'0 0.0
2017-Jun-18 09:54N 33°44' W 118°17'0 0.0
2017-Jun-18 09:30N 33°44' W 118°17'0 0.0
2017-Jun-18 08:29N 33°44' W 118°17'0 0.0
2017-Jun-18 07:53N 33°44' W 118°17'0 0.0
2017-Jun-18 07:30N 33°44' W 118°17'0 0.0
2017-Jun-18 07:00N 33°44' W 118°17'0 0.0
2017-Jun-18 06:31N 33°44' W 118°17'0 0.0
2017-Jun-18 06:00N 33°44' W 118°17'0 0.0
2017-Jun-18 05:29N 33°44' W 118°17'0 0.0
2017-Jun-18 04:56N 33°44' W 118°17'0 0.0
2017-Jun-18 04:26N 33°44' W 118°17'0 0.0
2017-Jun-18 03:59N 33°44' W 118°17'0 0.0
2017-Jun-18 03:30N 33°44' W 118°17'0 0.0
2017-Jun-18 02:37N 33°44' W 118°17'0 0.0
2017-Jun-18 02:29N 33°44' W 118°17'0 0.1
2017-Jun-18 02:00N 33°44' W 118°17'2 3.4
2017-Jun-18 01:30N 33°43' W 118°15'2 3.8
2017-Jun-18 00:57N 33°43' W 118°13'0 0.7
2017-Jun-18 00:30N 33°43' W 118°12'3 5.6
2017-Jun-18 00:00N 33°43' W 118°16'2 2.9
2017-Jun-17 23:28N 33°44' W 118°17'0 0.0
2017-Jun-17 22:58N 33°44' W 118°17'0 0.0
2017-Jun-17 22:29N 33°44' W 118°17'0 0.0
2017-Jun-17 21:59N 33°44' W 118°17'0 0.0
2017-Jun-17 21:27N 33°44' W 118°17'0 0.0
2017-Jun-17 18:53N 33°44' W 118°17'0 0.0
2017-Jun-17 18:29N 33°44' W 118°17'0 0.0
2017-Jun-17 17:58N 33°44' W 118°17'0 0.0
2017-Jun-17 17:29N 33°44' W 118°17'0 0.0
2017-Jun-17 16:56N 33°44' W 118°17'0 0.0
2017-Jun-17 16:25N 33°44' W 118°17'0 0.0
2017-Jun-17 13:15N 33°44' W 118°17'0 0.0
2017-Jun-17 12:47N 33°44' W 118°17'0 0.0
2017-Jun-17 12:25N 33°44' W 118°17'0 0.0
2017-Jun-17 10:26N 33°44' W 118°17'0 0.0
2017-Jun-17 09:43N 33°44' W 118°17'0 0.0
2017-Jun-17 09:29N 33°44' W 118°17'0 0.0
2017-Jun-17 07:47N 33°44' W 118°17'0 0.0
2017-Jun-17 07:11N 33°44' W 118°17'0 0.0
2017-Jun-17 06:58N 33°44' W 118°17'0 0.0
2017-Jun-17 06:30N 33°44' W 118°17'0 0.0
2017-Jun-16 23:05N 33°44' W 118°17'0 0.0
2017-Jun-16 22:38N 33°44' W 118°17'0 0.0
2017-Jun-16 22:21N 33°44' W 118°17'0 0.0
2017-Jun-16 21:51N 33°44' W 118°17'0 0.0
2017-Jun-16 21:27N 33°44' W 118°17'0 0.0
2017-Jun-16 20:55N 33°44' W 118°17'0 0.0
2017-Jun-16 20:30N 33°44' W 118°17'0 0.0
2017-Jun-16 20:00N 33°44' W 118°17'1 3.0
2017-Jun-16 19:30N 33°43' W 118°15'3 5.1
2017-Jun-16 19:00N 33°44' W 118°12'2 4.2
2017-Jun-16 18:30N 33°45' W 118°10'1 1.6
2017-Jun-16 17:58N 33°45' W 118°10'0 0.0
2017-Jun-16 17:26N 33°45' W 118°10'0 0.0
2017-Jun-16 10:57N 33°45' W 118°10'0 0.0
2017-Jun-16 10:27N 33°45' W 118°10'0 0.0
2017-Jun-16 09:06N 33°45' W 118°10'0 0.0
2017-Jun-16 08:41N 33°45' W 118°10'0 0.0
2017-Jun-16 08:29N 33°45' W 118°10'0 0.0
2017-Jun-16 07:55N 33°45' W 118°10'0 0.0
2017-Jun-16 07:30N 33°45' W 118°10'0 0.0
2017-Jun-16 06:59N 33°45' W 118°10'0 0.0
2017-Jun-16 06:28N 33°45' W 118°10'0 0.0
2017-Jun-16 05:59N 33°45' W 118°10'0 0.0
2017-Jun-16 05:26N 33°45' W 118°10'0 0.0
2017-Jun-16 04:56N 33°45' W 118°10'0 0.0
2017-Jun-16 02:53N 33°45' W 118°10'1 3.4
2017-Jun-16 02:28N 33°45' W 118°11'2 2.9
2017-Jun-16 01:44N 33°43' W 118°11'2 3.3
2017-Jun-16 01:14N 33°41' W 118°11'1 3.0
2017-Jun-16 01:00N 33°41' W 118°11'2 4.7
2017-Jun-16 00:30N 33°39' W 118°12'3 5.1
2017-Jun-16 00:00N 33°38' W 118°15'3 5.5
2017-Jun-15 23:30N 33°37' W 118°18'3 5.2
2017-Jun-15 22:58N 33°35' W 118°21'2 4.6
2017-Jun-15 22:28N 33°34' W 118°23'2 4.0
2017-Jun-15 21:59N 33°33' W 118°25'2 1.2
2017-Jun-15 20:34N 33°32' W 118°27'0 0.8
2017-Jun-15 20:30N 33°32' W 118°27'0 0.7
2017-Jun-15 20:00N 33°31' W 118°27'1 1.5
2017-Jun-15 19:30N 33°31' W 118°28'1 2.1
2017-Jun-15 19:00N 33°30' W 118°29'1 2.1
2017-Jun-15 18:30N 33°30' W 118°30'1 1.7
2017-Jun-15 17:51N 33°30' W 118°31'0 0.6
2017-Jun-15 17:21N 33°30' W 118°32'1 3.5
2017-Jun-15 16:57N 33°28' W 118°31'  

Dump ship's entire track history